Time;durP1;ratioP1;P1;durP2;ratioP2;P2;SDS_P1;SDS_P2;PMS_P1;PMS_P2;Temp;Humidity;BMP_temperature;BMP_pressure;BME280_temperature;BME280_humidity;BME280_pressure;Samples;Min_cycle;Max_cycle;Signal;HPM_P1;HPM_P2
2024/03/09 00:00:38;;;;;;;37.03;26.40;;;;;22.40;99485.00;;;;2057128;28;20275;-60
2024/03/09 00:01:39;;;;;;;37.60;25.70;;;;;22.40;99469.00;;;;2048223;28;20217;-60
2024/03/09 00:02:39;;;;;;;38.43;26.43;;;;;22.30;99481.00;;;;2052101;28;20608;-61
2024/03/09 00:03:39;;;;;;;39.43;26.13;;;;;22.30;99484.00;;;;2043715;28;20230;-61
2024/03/09 00:04:43;;;;;;;36.70;27.07;;;;;22.40;99479.00;;;;2043165;28;20311;-59
2024/03/09 00:05:45;;;;;;;38.05;25.75;;;;;22.40;99475.00;;;;2052215;28;20235;-60
2024/03/09 00:06:46;;;;;;;37.67;26.58;;;;;22.30;99487.00;;;;2053078;28;20231;-61
2024/03/09 00:07:47;;;;;;;40.83;27.10;;;;;22.30;99467.00;;;;2044803;28;20271;-61
2024/03/09 00:08:48;;;;;;;37.95;25.30;;;;;22.30;99470.00;;;;2031168;28;20449;-61
2024/03/09 00:09:49;;;;;;;37.75;25.58;;;;;22.30;99468.00;;;;2054545;28;20258;-61
2024/03/09 00:10:49;;;;;;;38.97;26.93;;;;;22.30;99474.00;;;;2054105;28;20219;-61
2024/03/09 00:11:50;;;;;;;38.00;25.10;;;;;22.30;99475.00;;;;2052302;28;20220;-61
2024/03/09 00:12:51;;;;;;;38.77;25.90;;;;;22.30;99470.00;;;;2053095;28;20230;-60
2024/03/09 00:13:53;;;;;;;35.13;25.38;;;;;22.30;99468.00;;;;2026930;28;20272;-61
2024/03/09 00:14:54;;;;;;;34.67;24.58;;;;;22.30;99470.00;;;;2055405;28;20794;-62
2024/03/09 00:15:54;;;;;;;32.90;23.30;;;;;22.30;99473.00;;;;2045959;28;20220;-61
2024/03/09 00:16:54;;;;;;;39.47;25.73;;;;;22.30;99465.00;;;;2052388;28;20230;-63
2024/03/09 00:18:00;;;;;;;36.73;24.90;;;;;22.30;99464.00;;;;2050372;28;20231;-61
2024/03/09 00:19:03;;;;;;;37.60;25.65;;;;;22.20;99477.00;;;;2033859;28;20216;-61
2024/03/09 00:20:04;;;;;;;34.67;24.98;;;;;22.20;99468.00;;;;2052133;28;20278;-61
2024/03/09 00:21:08;;;;;;;34.88;25.05;;;;;22.20;99510.00;;;;2051479;28;20242;-61
2024/03/09 00:22:09;;;;;;;34.15;24.48;;;;;22.20;99473.00;;;;2052613;28;20925;-62
2024/03/09 00:23:10;;;;;;;31.03;22.83;;;;;22.20;99474.00;;;;2049905;28;20298;-61
2024/03/09 00:24:12;;;;;;;32.30;24.87;;;;;22.20;99470.00;;;;2035778;28;20235;-60
2024/03/09 00:25:13;;;;;;;35.88;24.52;;;;;22.20;99506.00;;;;2049439;28;20243;-61
2024/03/09 00:26:13;;;;;;;35.17;23.95;;;;;22.20;99475.00;;;;2043741;28;20318;-60
2024/03/09 00:27:18;;;;;;;35.43;23.60;;;;;22.20;99465.00;;;;2050910;28;20849;-61
2024/03/09 00:28:18;;;;;;;34.20;23.23;;;;;22.20;99462.00;;;;2052653;28;20219;-61
2024/03/09 00:29:20;;;;;;;32.60;22.77;;;;;22.20;99488.00;;;;2039573;28;20426;-61
2024/03/09 00:30:22;;;;;;;33.97;24.48;;;;;22.20;99468.00;;;;2033378;28;20294;-60
2024/03/09 00:31:23;;;;;;;35.85;24.02;;;;;22.20;99466.00;;;;2059931;28;20277;-61
2024/03/09 00:32:25;;;;;;;32.95;22.77;;;;;22.20;99475.00;;;;2051417;28;20219;-61
2024/03/09 00:33:26;;;;;;;29.63;22.00;;;;;22.20;99468.00;;;;2059141;28;20246;-59
2024/03/09 00:34:26;;;;;;;33.73;23.07;;;;;22.20;99475.00;;;;2046440;28;20723;-61
2024/03/09 00:35:27;;;;;;;32.40;23.33;;;;;22.20;99481.00;;;;2048545;28;20237;-61
2024/03/09 00:36:28;;;;;;;34.20;24.20;;;;;22.20;99444.00;;;;2051504;28;21109;-61
2024/03/09 00:37:30;;;;;;;34.45;23.63;;;;;22.10;99476.00;;;;2046390;28;20230;-64
2024/03/09 00:38:34;;;;;;;35.40;23.17;;;;;22.10;99467.00;;;;2051254;28;20588;-61
2024/03/09 00:39:39;;;;;;;35.22;23.65;;;;;22.10;99480.00;;;;2043438;28;21209;-59
2024/03/09 00:40:39;;;;;;;33.22;22.92;;;;;22.10;99307.00;;;;2057906;28;20219;-61
2024/03/09 00:41:42;;;;;;;31.83;22.67;;;;;22.10;99473.00;;;;2049090;28;20234;-61
2024/03/09 00:42:43;;;;;;;31.15;21.75;;;;;22.10;99476.00;;;;2052790;28;20219;-60
2024/03/09 00:43:43;;;;;;;30.13;21.67;;;;;22.10;99468.00;;;;2054477;28;20762;-61
2024/03/09 00:44:43;;;;;;;30.07;22.00;;;;;22.10;99465.00;;;;2054891;28;20229;-59
2024/03/09 00:45:44;;;;;;;32.10;22.07;;;;;22.10;99471.00;;;;2058290;28;20218;-61
2024/03/09 00:46:45;;;;;;;33.30;22.30;;;;;22.10;99468.00;;;;2052126;28;20251;-59
2024/03/09 00:47:48;;;;;;;31.30;21.90;;;;;22.10;99480.00;;;;2056710;28;20285;-60
2024/03/09 00:48:48;;;;;;;30.48;22.30;;;;;22.00;99467.00;;;;2041183;28;20499;-59
2024/03/09 00:49:49;;;;;;;29.70;21.37;;;;;22.10;99468.00;;;;2052353;28;20226;-60
2024/03/09 00:50:52;;;;;;;29.90;21.00;;;;;22.10;99458.00;;;;2054206;28;20294;-60
2024/03/09 00:51:52;;;;;;;34.35;21.52;;;;;22.00;99459.00;;;;2052168;28;20227;-61
2024/03/09 00:52:53;;;;;;;30.80;22.50;;;;;22.00;99457.00;;;;2048642;28;20235;-61
2024/03/09 00:53:55;;;;;;;30.87;22.20;;;;;22.00;99461.00;;;;2042802;28;20227;-61
2024/03/09 00:54:55;;;;;;;32.50;22.45;;;;;22.00;99454.00;;;;2051715;28;20587;-60
2024/03/09 00:55:56;;;;;;;31.90;20.73;;;;;22.10;99451.00;;;;2052455;28;20231;-60
2024/03/09 00:56:56;;;;;;;32.57;21.20;;;;;22.10;99459.00;;;;2050869;28;20230;-60
2024/03/09 00:57:56;;;;;;;28.40;20.73;;;;;22.00;99446.00;;;;2047685;28;20228;-59
2024/03/09 00:59:00;;;;;;;30.87;20.30;;;;;22.00;99441.00;;;;2043789;28;20298;-60
2024/03/09 01:00:00;;;;;;;30.17;20.40;;;;;22.00;99454.00;;;;2045777;28;20424;-60
2024/03/09 01:01:04;;;;;;;29.57;21.40;;;;;22.00;99446.00;;;;2055918;28;20221;-60
2024/03/09 01:02:08;;;;;;;29.27;20.88;;;;;22.00;99444.00;;;;2052058;28;20455;-61
2024/03/09 01:03:08;;;;;;;28.80;20.05;;;;;22.00;99445.00;;;;2057362;28;20299;-60
2024/03/09 01:04:09;;;;;;;29.60;20.63;;;;;22.00;99441.00;;;;2041375;28;20238;-61
2024/03/09 01:05:10;;;;;;;27.25;19.80;;;;;22.00;99468.00;;;;2055595;28;20289;-60
2024/03/09 01:06:11;;;;;;;30.40;20.13;;;;;22.00;99445.00;;;;2046303;28;20208;-61
2024/03/09 01:07:13;;;;;;;27.07;20.30;;;;;21.90;99442.00;;;;2052040;28;20911;-60
2024/03/09 01:08:15;;;;;;;25.92;19.40;;;;;21.90;99439.00;;;;2053470;28;20214;-60
2024/03/09 01:09:15;;;;;;;29.30;19.80;;;;;21.90;99446.00;;;;2042412;28;20227;-61
2024/03/09 01:10:16;;;;;;;31.67;20.47;;;;;21.90;99443.00;;;;2043760;28;20236;-60
2024/03/09 01:11:19;;;;;;;29.20;20.60;;;;;21.90;99442.00;;;;2052982;28;20235;-61
2024/03/09 01:12:20;;;;;;;25.95;19.20;;;;;21.90;99463.00;;;;2051944;28;20255;-61
2024/03/09 01:13:22;;;;;;;28.60;20.13;;;;;21.90;99436.00;;;;2053099;28;20773;-61
2024/03/09 01:14:27;;;;;;;26.55;19.30;;;;;21.90;99428.00;;;;2056450;28;20210;-61
2024/03/09 01:15:27;;;;;;;27.77;19.80;;;;;21.90;99428.00;;;;2063530;28;20222;-60
2024/03/09 01:16:29;;;;;;;26.63;18.88;;;;;21.90;99322.00;;;;2044733;28;20216;-62
2024/03/09 01:17:29;;;;;;;29.20;20.30;;;;;21.90;99428.00;;;;2053845;28;20224;-60
2024/03/09 01:18:30;;;;;;;25.70;18.20;;;;;21.90;99422.00;;;;2052513;28;20212;-60
2024/03/09 01:19:30;;;;;;;31.43;20.37;;;;;21.90;99429.00;;;;2042578;28;20242;-62
2024/03/09 01:20:30;;;;;;;24.50;18.40;;;;;21.90;99426.00;;;;2060768;28;20240;-60
2024/03/09 01:21:33;;;;;;;30.40;19.70;;;;;21.90;99421.00;;;;2057630;28;20222;-61
2024/03/09 01:22:34;;;;;;;26.02;18.48;;;;;21.90;99419.00;;;;2057233;28;20699;-60
2024/03/09 01:23:34;;;;;;;28.17;19.83;;;;;21.90;99420.00;;;;2061607;28;20672;-62
2024/03/09 01:24:34;;;;;;;26.97;19.00;;;;;21.90;99417.00;;;;2051433;28;20462;-58
2024/03/09 01:25:35;;;;;;;25.77;17.70;;;;;21.80;99413.00;;;;2059208;28;20231;-60
2024/03/09 01:26:35;;;;;;;25.67;17.70;;;;;21.90;99402.00;;;;2054779;28;20264;-61
2024/03/09 01:27:36;;;;;;;28.03;17.53;;;;;21.90;99405.00;;;;2050454;28;20231;-61
2024/03/09 01:28:37;;;;;;;22.60;17.63;;;;;21.80;99419.00;;;;2029208;29;20225;-61
2024/03/09 01:29:43;;;;;;;26.08;17.85;;;;;21.80;99409.00;;;;2028611;28;21033;-61
2024/03/09 01:30:45;;;;;;;26.60;18.17;;;;;21.80;99407.00;;;;2053136;28;20263;-60
2024/03/09 01:31:45;;;;;;;24.70;17.70;;;;;21.80;99414.00;;;;2058851;28;20225;-60
2024/03/09 01:32:46;;;;;;;25.70;18.73;;;;;21.80;99409.00;;;;2061076;28;20297;-60
2024/03/09 01:33:47;;;;;;;23.73;17.10;;;;;21.80;99412.00;;;;2034427;28;20219;-62
2024/03/09 01:34:48;;;;;;;25.77;18.33;;;;;21.80;99408.00;;;;2036400;28;20209;-61
2024/03/09 01:35:49;;;;;;;24.43;17.07;;;;;21.80;99403.00;;;;2049156;28;20475;-62
2024/03/09 01:36:50;;;;;;;25.05;17.45;;;;;21.80;99405.00;;;;2050075;28;20215;-60
2024/03/09 01:37:50;;;;;;;22.70;17.30;;;;;21.80;99399.00;;;;2060987;28;20219;-60
2024/03/09 01:38:51;;;;;;;24.33;17.83;;;;;21.80;99400.00;;;;2042724;28;20216;-60
2024/03/09 01:39:52;;;;;;;26.63;17.37;;;;;21.80;99396.00;;;;2036562;28;20236;-63
2024/03/09 01:40:52;;;;;;;24.50;17.13;;;;;21.70;99390.00;;;;2055600;28;20222;-61
2024/03/09 01:41:52;;;;;;;20.50;15.80;;;;;21.80;99397.00;;;;2063784;28;21113;-60
2024/03/09 01:42:53;;;;;;;23.17;16.80;;;;;21.80;99396.00;;;;2054633;28;20643;-61
2024/03/09 01:43:55;;;;;;;22.23;17.23;;;;;21.70;99319.00;;;;2044307;28;20223;-60
2024/03/09 01:44:57;;;;;;;21.85;16.73;;;;;21.70;99395.00;;;;2058616;28;20607;-62
2024/03/09 01:45:57;;;;;;;25.52;17.48;;;;;21.70;99397.00;;;;2050759;28;20724;-63
2024/03/09 01:47:07;;;;;;;20.50;15.40;;;;;21.70;99398.00;;;;2035848;29;20221;-61
2024/03/09 01:48:09;;;;;;;21.77;15.50;;;;;21.70;99398.00;;;;2043880;28;20223;-61
2024/03/09 01:49:09;;;;;;;22.88;17.23;;;;;21.70;99395.00;;;;2033542;28;20220;-61
2024/03/09 01:50:10;;;;;;;23.57;15.87;;;;;21.70;99397.00;;;;2036392;28;20224;-60
2024/03/09 01:51:11;;;;;;;20.57;15.50;;;;;21.70;99388.00;;;;2043993;28;20209;-61
2024/03/09 01:52:12;;;;;;;21.27;15.43;;;;;21.70;99384.00;;;;2042913;28;20505;-61
2024/03/09 01:53:13;;;;;;;20.60;15.13;;;;;21.70;99393.00;;;;2050175;28;20215;-61
2024/03/09 01:54:19;;;;;;;23.60;15.75;;;;;21.70;99380.00;;;;2042219;28;20238;-61
2024/03/09 01:55:20;;;;;;;22.65;15.88;;;;;21.70;99386.00;;;;2040778;28;20207;-60
2024/03/09 01:56:22;;;;;;;23.90;15.70;;;;;21.70;99389.00;;;;2039854;28;20299;-61
2024/03/09 01:57:24;;;;;;;21.85;14.90;;;;;21.70;99388.00;;;;2044135;28;20844;-61
2024/03/09 01:58:27;;;;;;;22.77;16.73;;;;;21.70;99383.00;;;;2046919;28;20227;-60
2024/03/09 01:59:32;;;;;;;20.08;14.82;;;;;21.70;99173.00;;;;2028801;28;20308;-60
2024/03/09 02:00:37;;;;;;;22.95;15.43;;;;;21.70;99381.00;;;;2024853;29;20252;-61
2024/03/09 02:01:38;;;;;;;19.70;14.70;;;;;21.70;99332.00;;;;2034587;28;20231;-61
2024/03/09 02:02:38;;;;;;;19.47;14.67;;;;;21.70;99381.00;;;;2044335;28;20231;-60
2024/03/09 02:03:39;;;;;;;21.87;15.27;;;;;21.70;99379.00;;;;2056976;28;20694;-61
2024/03/09 02:04:41;;;;;;;18.70;13.95;;;;;21.70;99368.00;;;;2048401;28;20222;-60
2024/03/09 02:05:41;;;;;;;21.17;14.93;;;;;21.70;99374.00;;;;2052704;28;20241;-61
2024/03/09 02:06:42;;;;;;;19.60;14.13;;;;;21.70;99369.00;;;;2052204;28;20227;-60
2024/03/09 02:07:45;;;;;;;19.57;14.30;;;;;21.70;99375.00;;;;2056016;28;20346;-60
2024/03/09 02:08:47;;;;;;;19.10;14.25;;;;;21.70;99269.00;;;;2042540;28;20223;-60
2024/03/09 02:09:50;;;;;;;19.88;14.00;;;;;21.70;99336.00;;;;2051061;28;20795;-61
2024/03/09 02:10:52;;;;;;;17.40;13.55;;;;;21.70;99373.00;;;;2043876;28;20696;-61
2024/03/09 02:11:53;;;;;;;18.85;14.40;;;;;21.60;99373.00;;;;2039809;28;20217;-60
2024/03/09 02:12:53;;;;;;;18.97;13.90;;;;;21.60;99367.00;;;;2051304;28;20231;-61
2024/03/09 02:13:54;;;;;;;20.27;14.70;;;;;21.60;99374.00;;;;2032469;28;20266;-61
2024/03/09 02:14:54;;;;;;;19.43;14.70;;;;;21.60;99371.00;;;;2050472;28;20216;-60
2024/03/09 02:15:54;;;;;;;18.03;14.57;;;;;21.60;99371.00;;;;2054490;28;20223;-61
2024/03/09 02:16:55;;;;;;;20.10;14.73;;;;;21.60;99369.00;;;;2060476;28;20221;-61
2024/03/09 02:17:56;;;;;;;19.87;14.20;;;;;21.60;99370.00;;;;2051254;28;20226;-61
2024/03/09 02:18:58;;;;;;;18.02;12.80;;;;;21.00;99367.00;;;;2025816;28;20279;-61
2024/03/09 02:19:59;;;;;;;18.17;14.27;;;;;21.60;99369.00;;;;2045294;28;20222;-61
2024/03/09 02:21:01;;;;;;;18.00;12.70;;;;;21.60;99363.00;;;;2066648;28;20272;-61
2024/03/09 02:22:02;;;;;;;17.85;13.38;;;;;21.60;99370.00;;;;2058724;28;20270;-60
2024/03/09 02:23:03;;;;;;;17.67;12.75;;;;;21.60;99359.00;;;;2059977;28;20218;-61
2024/03/09 02:24:07;;;;;;;17.17;13.30;;;;;21.60;99364.00;;;;2037919;28;20214;-60
2024/03/09 02:25:11;;;;;;;18.45;12.85;;;;;21.60;99361.00;;;;2050439;28;20219;-62
2024/03/09 02:26:16;;;;;;;16.23;13.10;;;;;21.50;99364.00;;;;2036626;28;20235;-61
2024/03/09 02:27:19;;;;;;;16.75;12.10;;;;;21.60;99361.00;;;;2028393;29;20249;-61
2024/03/09 02:28:20;;;;;;;16.27;12.70;;;;;21.60;99360.00;;;;2036579;28;20212;-61
2024/03/09 02:29:23;;;;;;;16.85;13.48;;;;;21.50;99354.00;;;;2049054;28;20250;-61
2024/03/09 02:30:24;;;;;;;17.17;12.98;;;;;21.60;99357.00;;;;2057553;28;20218;-60
2024/03/09 02:31:25;;;;;;;17.90;13.17;;;;;21.50;99352.00;;;;2052578;28;20246;-61
2024/03/09 02:32:25;;;;;;;17.83;12.90;;;;;21.50;99354.00;;;;2044076;28;20212;-61
2024/03/09 02:33:25;;;;;;;17.67;12.87;;;;;21.60;99351.00;;;;2043666;28;20461;-61
2024/03/09 02:34:26;;;;;;;17.90;12.97;;;;;21.50;99354.00;;;;2037040;28;20230;-60
2024/03/09 02:35:28;;;;;;;17.80;12.70;;;;;21.60;99330.00;;;;2059142;28;20212;-61
2024/03/09 02:36:29;;;;;;;17.35;13.43;;;;;21.60;99351.00;;;;2049350;28;20971;-59
2024/03/09 02:37:29;;;;;;;17.52;12.45;;;;;21.50;99309.00;;;;2037684;28;20239;-61
2024/03/09 02:38:30;;;;;;;17.73;12.60;;;;;21.60;99343.00;;;;2035252;28;20217;-60
2024/03/09 02:39:34;;;;;;;16.60;12.60;;;;;21.50;99339.00;;;;2042274;28;20220;-60
2024/03/09 02:40:39;;;;;;;16.67;13.40;;;;;21.50;99334.00;;;;2047835;28;20221;-62
2024/03/09 02:41:42;;;;;;;17.02;12.55;;;;;21.50;99337.00;;;;2043029;28;20220;-62
2024/03/09 02:44:01;;;;;;;16.95;13.02;;;;;21.50;99334.00;;;;2032184;28;20224;-60
2024/03/09 02:45:01;;;;;;;17.83;12.70;;;;;21.50;99337.00;;;;2053774;28;20234;-60
2024/03/09 02:46:02;;;;;;;15.93;11.77;;;;;21.50;99346.00;;;;2066776;28;20222;-61
2024/03/09 02:47:03;;;;;;;17.17;12.60;;;;;21.50;99332.00;;;;2064510;28;20891;-60
2024/03/09 02:48:04;;;;;;;16.15;12.13;;;;;21.50;99339.00;;;;2046781;28;20252;-60
2024/03/09 02:49:05;;;;;;;15.03;11.60;;;;;21.50;99338.00;;;;2049379;28;20223;-60
2024/03/09 02:50:05;;;;;;;18.05;12.68;;;;;21.50;99334.00;;;;2043030;28;20235;-62
2024/03/09 02:51:08;;;;;;;15.63;12.27;;;;;21.50;99337.00;;;;2044613;28;20251;-60
2024/03/09 02:52:08;;;;;;;15.60;12.07;;;;;21.50;99326.00;;;;2067989;28;20504;-60
2024/03/09 02:53:09;;;;;;;17.87;12.97;;;;;21.50;99332.00;;;;2059710;28;20945;-61
2024/03/09 02:54:09;;;;;;;16.37;11.83;;;;;21.50;99292.00;;;;2048980;28;21013;-62
2024/03/09 02:55:10;;;;;;;17.03;12.30;;;;;21.50;99337.00;;;;2058182;28;20723;-61
2024/03/09 02:56:11;;;;;;;18.27;11.70;;;;;21.50;99334.00;;;;2044094;28;20208;-64
2024/03/09 02:57:16;;;;;;;14.63;11.50;;;;;21.50;99332.00;;;;2052888;28;20210;-60
2024/03/09 02:58:17;;;;;;;16.27;12.38;;;;;21.50;99333.00;;;;2057737;28;20222;-60
2024/03/09 02:59:18;;;;;;;17.93;13.40;;;;;21.50;99324.00;;;;2039386;28;20278;-62
2024/03/09 03:00:23;;;;;;;17.00;12.50;;;;;21.50;99329.00;;;;2059690;28;21289;-61
2024/03/09 03:01:27;;;;;;;16.73;12.68;;;;;21.50;99334.00;;;;2048438;28;20266;-58
2024/03/09 03:03:51;;;;;;;15.90;12.60;;;;;21.50;99336.00;;;;2042388;28;20688;-63
2024/03/09 03:04:51;;;;;;;16.35;12.48;;;;;21.40;99324.00;;;;2039563;28;21053;-61
2024/03/09 03:05:52;;;;;;;15.63;11.50;;;;;21.40;99331.00;;;;2052416;28;20220;-61
2024/03/09 03:06:57;;;;;;;17.25;11.93;;;;;21.40;99321.00;;;;2052671;28;20266;-60
2024/03/09 03:08:00;;;;;;;15.68;11.50;;;;;21.40;99325.00;;;;2054988;28;20214;-61
2024/03/09 03:09:10;;;;;;;16.55;12.13;;;;;21.40;99322.00;;;;2045323;28;20298;-60
2024/03/09 03:10:11;;;;;;;17.50;13.25;;;;;21.40;99325.00;;;;2050382;28;20259;-61
2024/03/09 03:11:16;;;;;;;19.17;13.00;;;;;21.40;99158.00;;;;2046959;28;20220;-60
2024/03/09 03:12:17;;;;;;;16.23;11.73;;;;;21.40;99321.00;;;;2044066;28;20224;-67
2024/03/09 03:13:18;;;;;;;16.15;12.05;;;;;20.80;99316.00;;;;2051299;28;20223;-62
2024/03/09 03:14:20;;;;;;;16.90;12.67;;;;;21.40;99316.00;;;;2051138;28;20314;-60
2024/03/09 03:15:21;;;;;;;14.45;11.07;;;;;21.40;99319.00;;;;2046025;28;20227;-60
2024/03/09 03:16:26;;;;;;;13.63;10.48;;;;;21.40;99319.00;;;;2040499;28;20763;-61
2024/03/09 03:17:27;;;;;;;17.10;11.88;;;;;21.40;99322.00;;;;2060925;28;20219;-61
2024/03/09 03:18:28;;;;;;;15.03;11.13;;;;;21.40;99314.00;;;;2062473;28;20210;-59
2024/03/09 03:19:29;;;;;;;16.77;12.45;;;;;21.40;99217.00;;;;2056388;28;20220;-60
2024/03/09 03:20:33;;;;;;;14.80;10.97;;;;;21.40;99253.00;;;;2050069;28;20764;-61
2024/03/09 03:21:34;;;;;;;15.90;11.93;;;;;21.40;99315.00;;;;2030693;29;20305;-60
2024/03/09 03:22:34;;;;;;;15.10;11.57;;;;;21.40;99318.00;;;;2040200;28;20248;-60
2024/03/09 03:23:36;;;;;;;15.87;11.70;;;;;21.40;99321.00;;;;2055508;28;20664;-60
2024/03/09 03:24:38;;;;;;;15.23;11.57;;;;;21.40;99319.00;;;;2050701;28;20219;-60
2024/03/09 03:25:38;;;;;;;14.90;11.85;;;;;21.40;99312.00;;;;2053224;28;20222;-61
2024/03/09 03:26:39;;;;;;;15.10;10.40;;;;;21.40;99275.00;;;;2052501;28;20251;-61
2024/03/09 03:27:41;;;;;;;15.55;10.98;;;;;21.40;99313.00;;;;2048430;28;20224;-60
2024/03/09 03:28:49;;;;;;;16.30;10.82;;;;;21.40;99341.00;;;;2049000;28;20231;-60
2024/03/09 03:29:51;;;;;;;15.63;11.80;;;;;21.40;99315.00;;;;2027262;29;20316;-60
2024/03/09 03:30:51;;;;;;;17.52;11.55;;;;;21.40;99309.00;;;;2037823;28;20241;-61
2024/03/09 03:31:56;;;;;;;14.50;10.77;;;;;21.30;99310.00;;;;2059921;28;20223;-61
2024/03/09 03:32:57;;;;;;;17.52;11.75;;;;;21.30;99318.00;;;;2053914;28;20234;-60
2024/03/09 03:33:57;;;;;;;13.90;10.70;;;;;21.30;99297.00;;;;2048199;28;20230;-61
2024/03/09 03:34:58;;;;;;;14.10;11.30;;;;;21.30;99309.00;;;;2050946;28;20242;-62
2024/03/09 03:36:01;;;;;;;14.37;11.50;;;;;21.30;99313.00;;;;2052918;28;20235;-62
2024/03/09 03:37:04;;;;;;;13.27;10.65;;;;;21.30;99304.00;;;;2061691;28;20454;-60
2024/03/09 03:38:06;;;;;;;15.13;10.75;;;;;21.30;99314.00;;;;2054930;28;20231;-59
2024/03/09 03:39:12;;;;;;;14.38;10.65;;;;;21.30;99306.00;;;;2051389;28;20283;-61
2024/03/09 03:40:15;;;;;;;17.70;11.80;;;;;21.30;99308.00;;;;2045476;28;20223;-60
2024/03/09 03:41:16;;;;;;;15.18;10.77;;;;;21.30;99332.00;;;;2045951;28;20235;-59
2024/03/09 03:42:17;;;;;;;16.65;11.88;;;;;21.30;99310.00;;;;2049171;28;20277;-61
2024/03/09 03:43:18;;;;;;;12.67;9.43;;;;;21.30;99305.00;;;;2061069;28;20689;-61
2024/03/09 03:44:19;;;;;;;14.63;11.60;;;;;21.30;99305.00;;;;2048869;28;20234;-65
2024/03/09 03:45:25;;;;;;;14.50;10.63;;;;;21.30;99305.00;;;;2052432;28;20212;-61
2024/03/09 03:46:26;;;;;;;15.48;11.32;;;;;21.30;99304.00;;;;2046025;28;20226;-60
2024/03/09 03:47:28;;;;;;;15.80;10.40;;;;;21.30;99304.00;;;;2042760;28;20680;-61
2024/03/09 03:48:29;;;;;;;15.45;10.30;;;;;21.30;99311.00;;;;2048127;28;21951;-60
2024/03/09 03:49:31;;;;;;;17.07;12.30;;;;;21.30;99306.00;;;;2050808;28;20207;-60
2024/03/09 03:50:32;;;;;;;14.10;10.70;;;;;21.30;99305.00;;;;2059448;28;20454;-60
2024/03/09 03:51:33;;;;;;;14.05;10.50;;;;;21.30;99295.00;;;;2065368;28;20217;-60
2024/03/09 03:52:33;;;;;;;13.37;9.80;;;;;21.30;99310.00;;;;2061600;28;20238;-60
2024/03/09 03:53:33;;;;;;;12.07;9.90;;;;;21.30;99306.00;;;;2063433;28;20262;-60
2024/03/09 03:54:35;;;;;;;16.03;10.47;;;;;21.30;99311.00;;;;2049173;28;20217;-60
2024/03/09 03:55:37;;;;;;;13.68;10.38;;;;;21.30;99292.00;;;;2054457;28;20757;-60
2024/03/09 03:56:38;;;;;;;14.20;10.57;;;;;21.30;99214.00;;;;2049381;28;20265;-60
2024/03/09 03:57:42;;;;;;;13.70;10.52;;;;;21.30;99305.00;;;;2063957;28;20935;-59
2024/03/09 03:58:46;;;;;;;12.70;10.30;;;;;21.30;99304.00;;;;2047069;28;20809;-59
2024/03/09 03:59:49;;;;;;;13.60;10.70;;;;;21.30;99292.00;;;;2050677;28;20230;-60
2024/03/09 04:00:50;;;;;;;15.60;10.35;;;;;21.30;99304.00;;;;2054992;28;20282;-62
2024/03/09 04:01:54;;;;;;;13.03;10.07;;;;;21.30;99307.00;;;;2033549;29;21058;-61
2024/03/09 04:02:54;;;;;;;14.10;10.45;;;;;21.20;99299.00;;;;2046922;28;21200;-60
2024/03/09 04:03:55;;;;;;;13.93;10.50;;;;;21.30;99300.00;;;;2042290;28;20235;-60
2024/03/09 04:04:56;;;;;;;13.40;9.73;;;;;21.30;99304.00;;;;2056918;28;20225;-59
2024/03/09 04:05:57;;;;;;;13.60;10.47;;;;;21.30;99309.00;;;;2047820;28;20359;-60
2024/03/09 04:06:58;;;;;;;12.90;9.75;;;;;21.30;99295.00;;;;2048899;28;20491;-59
2024/03/09 04:07:58;;;;;;;13.20;10.13;;;;;21.30;99300.00;;;;2055160;28;20838;-60
2024/03/09 04:08:59;;;;;;;13.17;10.17;;;;;21.20;99304.00;;;;2056310;28;20218;-60
2024/03/09 04:10:11;;;;;;;15.47;10.97;;;;;21.20;99289.00;;;;2066070;28;20238;-61
2024/03/09 04:11:12;;;;;;;12.45;9.82;;;;;21.30;99294.00;;;;2052393;28;20226;-60
2024/03/09 04:12:13;;;;;;;12.37;9.70;;;;;21.30;99296.00;;;;2054516;28;20753;-60
2024/03/09 04:13:13;;;;;;;14.13;9.50;;;;;20.60;99300.00;;;;2059725;28;20465;-61
2024/03/09 04:14:14;;;;;;;12.93;9.97;;;;;21.20;99297.00;;;;2043218;28;20294;-59
2024/03/09 04:15:14;;;;;;;12.33;9.60;;;;;21.20;99296.00;;;;2046938;28;20227;-60
2024/03/09 04:16:14;;;;;;;13.70;10.60;;;;;21.20;99291.00;;;;2051417;28;20282;-60
2024/03/09 04:17:15;;;;;;;12.97;10.20;;;;;21.20;99294.00;;;;2058194;28;20249;-61
2024/03/09 04:18:15;;;;;;;12.50;9.43;;;;;21.20;99290.00;;;;2060273;28;20219;-60
2024/03/09 04:19:16;;;;;;;13.27;9.43;;;;;21.20;99320.00;;;;2053947;28;20237;-58
2024/03/09 04:20:16;;;;;;;12.33;9.50;;;;;21.20;99288.00;;;;2066688;28;20631;-58
2024/03/09 04:21:18;;;;;;;11.73;9.17;;;;;21.20;99202.00;;;;2045677;28;20695;-59
2024/03/09 04:22:18;;;;;;;14.15;10.15;;;;;21.20;99288.00;;;;2049366;28;20222;-61
2024/03/09 04:23:18;;;;;;;12.30;9.83;;;;;21.20;99288.00;;;;2059037;28;20280;-61
2024/03/09 04:24:19;;;;;;;13.00;9.77;;;;;21.20;99289.00;;;;2038496;28;20244;-60
2024/03/09 04:25:19;;;;;;;11.40;8.33;;;;;21.20;99290.00;;;;2051274;28;20299;-61
2024/03/09 04:26:20;;;;;;;12.57;10.20;;;;;21.20;99289.00;;;;2037886;28;20216;-61
2024/03/09 04:27:21;;;;;;;12.23;9.00;;;;;21.20;99291.00;;;;2050219;28;20207;-61
2024/03/09 04:28:22;;;;;;;11.80;9.23;;;;;21.20;99286.00;;;;2060950;28;20844;-61
2024/03/09 04:29:23;;;;;;;13.32;9.13;;;;;21.20;99284.00;;;;2036871;28;20212;-61
2024/03/09 04:30:26;;;;;;;12.20;9.20;;;;;21.20;99286.00;;;;2044774;28;20776;-60
2024/03/09 04:31:32;;;;;;;11.88;9.48;;;;;21.20;99281.00;;;;2049819;28;20451;-60
2024/03/09 04:32:34;;;;;;;12.45;9.00;;;;;21.20;99285.00;;;;2026922;29;20226;-60
2024/03/09 04:33:34;;;;;;;13.32;9.57;;;;;21.20;99286.00;;;;2035723;28;20773;-61
2024/03/09 04:34:38;;;;;;;12.23;9.30;;;;;21.20;99283.00;;;;2031142;28;20240;-60
2024/03/09 04:35:41;;;;;;;11.52;9.02;;;;;21.20;99286.00;;;;2048138;28;20227;-59
2024/03/09 04:36:45;;;;;;;12.57;9.30;;;;;21.20;99280.00;;;;2054727;28;20215;-60
2024/03/09 04:37:46;;;;;;;13.50;9.23;;;;;21.20;99272.00;;;;2053487;28;20224;-61
2024/03/09 04:38:47;;;;;;;10.83;9.03;;;;;21.20;99286.00;;;;2044100;28;20856;-61
2024/03/09 04:39:49;;;;;;;13.37;10.03;;;;;21.20;99272.00;;;;2057334;28;20467;-61
2024/03/09 04:40:50;;;;;;;14.02;8.30;;;;;21.10;99275.00;;;;2058901;28;20309;-60
2024/03/09 04:41:54;;;;;;;11.20;8.70;;;;;21.10;99280.00;;;;2059580;28;20250;-60
2024/03/09 04:42:55;;;;;;;10.27;8.57;;;;;21.10;99273.00;;;;2058685;28;20233;-59
2024/03/09 04:43:55;;;;;;;11.03;8.97;;;;;21.10;99309.00;;;;2051469;28;20225;-59
2024/03/09 04:44:55;;;;;;;11.47;9.30;;;;;21.10;99279.00;;;;2057541;28;20924;-59
2024/03/09 04:45:56;;;;;;;14.10;10.30;;;;;21.20;99122.00;;;;2052067;28;20710;-60
2024/03/09 04:46:58;;;;;;;10.68;8.60;;;;;21.10;99269.00;;;;2044311;28;20220;-60
2024/03/09 04:47:59;;;;;;;11.88;8.95;;;;;21.10;99269.00;;;;2040322;28;20224;-60
2024/03/09 04:48:59;;;;;;;10.80;8.10;;;;;21.10;99280.00;;;;2049670;28;20219;-61
2024/03/09 04:50:01;;;;;;;10.53;8.77;;;;;21.10;99278.00;;;;2054385;28;20224;-60
2024/03/09 04:51:01;;;;;;;11.90;8.93;;;;;21.10;99265.00;;;;2051045;28;20204;-60
2024/03/09 04:52:01;;;;;;;11.30;9.13;;;;;21.10;99264.00;;;;2055179;28;20239;-60
2024/03/09 04:53:05;;;;;;;10.80;8.67;;;;;21.10;99272.00;;;;2044518;28;20220;-60
2024/03/09 04:54:06;;;;;;;10.35;8.35;;;;;21.10;99267.00;;;;2035056;28;20231;-60
2024/03/09 04:55:09;;;;;;;9.43;7.67;;;;;21.10;99266.00;;;;2053870;28;20208;-60
2024/03/09 04:56:10;;;;;;;10.15;8.20;;;;;21.10;99261.00;;;;2047086;28;20738;-59
2024/03/09 04:57:15;;;;;;;10.33;7.93;;;;;21.10;99261.00;;;;2045207;28;20239;-60
2024/03/09 04:58:15;;;;;;;10.27;7.90;;;;;21.10;99258.00;;;;2043839;28;20298;-58
2024/03/09 04:59:16;;;;;;;11.00;8.53;;;;;21.10;99257.00;;;;2034458;28;20216;-60
2024/03/09 05:00:16;;;;;;;10.18;8.23;;;;;21.10;99248.00;;;;2050499;28;20318;-60
2024/03/09 05:01:17;;;;;;;10.73;7.93;;;;;21.10;99257.00;;;;2055915;28;20223;-60
2024/03/09 05:02:17;;;;;;;11.60;8.43;;;;;21.10;99258.00;;;;2052183;28;20219;-61
2024/03/09 05:03:19;;;;;;;11.30;8.50;;;;;20.60;99254.00;;;;2060378;28;20223;-60
2024/03/09 05:04:20;;;;;;;10.82;7.95;;;;;21.10;99253.00;;;;2046770;28;20234;-60